createdAt,value
2023-01-05T00:02:30.608Z,5.17
2023-01-05T00:07:33.479Z,5.67
2023-01-05T00:12:55.106Z,5.40
2023-01-05T00:18:15.366Z,4.60
2023-01-05T00:23:18.682Z,5.23
2023-01-05T00:28:22.884Z,4.20
2023-01-05T00:33:25.987Z,4.93
2023-01-05T00:38:28.906Z,7.80
2023-01-05T00:43:33.163Z,5.57
2023-01-05T00:48:35.984Z,6.33
2023-01-05T00:53:39.036Z,4.93
2023-01-05T00:58:43.342Z,5.60
2023-01-05T01:03:46.482Z,4.83
2023-01-05T01:08:49.380Z,4.00
2023-01-05T01:13:53.750Z,4.90
2023-01-05T01:19:00.544Z,4.43
2023-01-05T01:24:06.587Z,6.23
2023-01-05T01:29:11.029Z,4.50
2023-01-05T01:34:13.911Z,4.73
2023-01-05T01:39:17.466Z,4.10
2023-01-05T01:44:50.888Z,3.97
2023-01-05T01:49:56.875Z,4.50
2023-01-05T01:55:00.547Z,4.67
2023-01-05T02:00:07.125Z,3.43
2023-01-05T02:05:22.514Z,4.97
2023-01-05T02:10:37.874Z,6.17
2023-01-05T02:15:45.745Z,4.07
2023-01-05T02:21:00.877Z,3.77
2023-01-05T02:26:43.979Z,6.63
2023-01-05T02:31:49.841Z,5.33
2023-01-05T02:36:55.906Z,6.63
2023-01-05T02:42:02.543Z,4.60
2023-01-05T02:47:08.458Z,6.60
2023-01-05T02:52:13.207Z,4.27
2023-01-05T02:57:18.551Z,6.17
2023-01-05T03:02:26.228Z,7.77
2023-01-05T03:07:32.467Z,4.73
2023-01-05T03:12:53.626Z,5.10
2023-01-05T03:18:01.967Z,6.20
2023-01-05T03:23:25.295Z,5.13
2023-01-05T03:28:48.891Z,4.40
2023-01-05T03:34:20.200Z,5.43
2023-01-05T03:39:26.520Z,5.03
2023-01-05T03:44:30.376Z,5.80
2023-01-05T03:49:36.020Z,4.30
2023-01-05T03:54:39.038Z,3.93
2023-01-05T03:59:42.104Z,4.73
2023-01-05T04:04:46.480Z,6.47
2023-01-05T04:09:49.697Z,4.20
2023-01-05T04:14:55.174Z,4.77
2023-01-05T04:20:00.537Z,5.80
2023-01-05T04:25:03.739Z,6.70
2023-01-05T04:30:09.784Z,4.80
2023-01-05T04:35:15.575Z,4.33
2023-01-05T04:40:20.641Z,4.97
2023-01-05T04:45:28.028Z,5.13
2023-01-05T04:50:32.856Z,4.00
2023-01-05T04:55:36.829Z,5.47
2023-01-05T05:00:42.820Z,4.00
2023-01-05T05:05:47.414Z,4.60
2023-01-05T05:10:51.472Z,4.83
2023-01-05T05:15:56.258Z,4.47
2023-01-05T05:21:00.689Z,4.83
2023-01-05T05:26:07.745Z,5.27
2023-01-05T05:31:10.964Z,5.33
2023-01-05T05:36:17.935Z,5.43
2023-01-05T05:41:23.795Z,5.67
2023-01-05T05:46:29.153Z,5.27
2023-01-05T05:51:33.503Z,3.93
2023-01-05T05:56:36.459Z,5.60
2023-01-05T06:01:39.352Z,5.53
2023-01-05T06:06:43.655Z,7.03
2023-01-05T06:11:46.590Z,5.17
2023-01-05T06:16:49.644Z,4.27
2023-01-05T06:21:53.911Z,7.87
2023-01-05T06:26:56.799Z,7.20
2023-01-05T06:31:59.653Z,6.60
2023-01-05T06:37:06.362Z,4.13
2023-01-05T06:42:09.263Z,4.73
2023-01-05T06:47:12.173Z,5.00
2023-01-05T06:52:17.087Z,9.30
2023-01-05T06:57:20.103Z,3.53
2023-01-05T07:02:45.380Z,4.00
2023-01-05T07:07:49.685Z,5.00
2023-01-05T07:12:52.578Z,5.60
2023-01-05T07:17:58.377Z,4.80
2023-01-05T07:23:02.596Z,3.27
2023-01-05T07:28:05.924Z,4.07
2023-01-05T07:33:39.980Z,3.07
2023-01-05T07:38:47.992Z,3.80
2023-01-05T07:43:56.088Z,4.00
2023-01-05T07:49:02.652Z,3.77
2023-01-05T07:54:07.100Z,5.07
2023-01-05T07:59:10.056Z,5.17
2023-01-05T08:04:15.160Z,5.83
2023-01-05T08:09:37.254Z,4.53
2023-01-05T08:14:42.279Z,2.80
2023-01-05T08:19:45.246Z,3.83
2023-01-05T08:24:49.665Z,4.10
2023-01-05T08:29:52.617Z,3.60
2023-01-05T08:34:55.833Z,5.50
2023-01-05T08:40:00.662Z,3.93
2023-01-05T08:50:29.088Z,4.60
2023-01-05T08:55:33.363Z,3.53
2023-01-05T09:00:36.447Z,4.93
2023-01-05T09:06:02.729Z,5.33
2023-01-05T09:11:11.190Z,5.23
2023-01-05T09:16:24.849Z,4.17
2023-01-05T09:21:39.582Z,2.67
2023-01-05T09:26:44.166Z,4.50
2023-01-05T09:31:47.228Z,4.50
2023-01-05T09:36:50.262Z,3.50
2023-01-05T09:41:56.650Z,4.57
2023-01-05T09:47:03.936Z,5.00
2023-01-05T09:52:10.817Z,4.37
2023-01-05T09:57:18.305Z,4.30
2023-01-05T10:02:29.768Z,4.20
2023-01-05T10:07:41.893Z,3.53
2023-01-05T10:13:04.230Z,4.00
2023-01-05T10:18:12.108Z,3.77
2023-01-05T10:23:27.017Z,4.80
2023-01-05T10:28:35.659Z,4.30
2023-01-05T10:33:54.636Z,3.60
2023-01-05T10:39:02.895Z,5.13
2023-01-05T10:44:24.510Z,4.97
2023-01-05T10:49:29.633Z,5.10
2023-01-05T10:54:38.885Z,4.90
2023-01-05T10:59:56.018Z,5.70
2023-01-05T11:05:04.548Z,7.07
2023-01-05T11:10:22.671Z,5.67
2023-01-05T11:15:27.014Z,5.40
2023-01-05T11:20:30.321Z,3.60
2023-01-05T11:25:34.132Z,5.03
2023-01-05T11:30:39.291Z,5.33
2023-01-05T11:35:45.054Z,4.50
2023-01-05T11:40:48.005Z,4.17
2023-01-05T11:45:54.165Z,3.80
2023-01-05T11:50:58.217Z,4.03
2023-01-05T11:56:02.273Z,4.97
2023-01-05T12:01:51.794Z,4.57
2023-01-05T12:07:09.355Z,4.70
2023-01-05T12:12:30.088Z,4.23
2023-01-05T12:17:46.683Z,3.80
2023-01-05T12:23:03.989Z,5.43
2023-01-05T12:28:39.496Z,4.97
2023-01-05T12:34:04.178Z,4.67
2023-01-05T12:39:31.965Z,4.77
2023-01-05T12:44:49.527Z,4.80
2023-01-05T12:49:57.945Z,5.60
2023-01-05T12:55:07.656Z,4.40
2023-01-05T13:00:13.003Z,5.13
2023-01-05T13:05:21.558Z,5.20
2023-01-05T13:10:29.579Z,5.50
2023-01-05T13:15:41.760Z,4.20
2023-01-05T13:20:47.965Z,4.47
2023-01-05T13:25:53.921Z,4.23
2023-01-05T13:31:22.520Z,4.80
2023-01-05T13:36:41.174Z,4.43
2023-01-05T13:42:16.713Z,4.73
2023-01-05T13:47:46.071Z,5.90
2023-01-05T13:53:02.712Z,5.83
2023-01-05T14:04:02.505Z,6.90
2023-01-05T14:09:32.849Z,5.23
2023-01-05T14:15:01.831Z,5.10
2023-01-05T14:20:05.096Z,5.67
2023-01-05T14:25:46.596Z,4.53
2023-01-05T14:30:50.348Z,6.73
2023-01-05T14:35:53.308Z,6.23
2023-01-05T14:41:00.507Z,4.97
2023-01-05T14:46:09.635Z,5.37
2023-01-05T14:51:21.472Z,5.53
2023-01-05T14:56:27.712Z,5.80
2023-01-05T15:06:56.595Z,8.93
2023-01-05T15:12:19.063Z,4.20
2023-01-05T15:17:48.307Z,5.60
2023-01-05T15:23:01.149Z,5.37
2023-01-05T15:28:25.216Z,3.63
2023-01-05T15:33:34.415Z,3.13
2023-01-05T15:38:45.556Z,5.70
2023-01-05T15:43:50.479Z,4.23
2023-01-05T15:48:57.691Z,9.13
2023-01-05T15:54:02.126Z,5.43
2023-01-05T15:59:24.408Z,4.80
2023-01-05T16:04:27.622Z,4.27
2023-01-05T16:09:36.373Z,3.53
2023-01-05T16:14:44.575Z,4.23
2023-01-05T16:19:52.277Z,3.93
2023-01-05T16:24:58.619Z,4.37
2023-01-05T16:30:17.387Z,4.33
2023-01-05T16:35:36.166Z,5.17
2023-01-05T16:41:04.382Z,4.00
2023-01-05T16:46:28.982Z,4.33
2023-01-05T16:51:40.512Z,3.70
2023-01-05T16:56:51.316Z,3.97
2023-01-05T17:01:57.014Z,4.60
2023-01-05T17:07:00.934Z,3.50
2023-01-05T17:12:05.604Z,4.33
2023-01-05T17:17:12.339Z,5.27
2023-01-05T17:22:17.719Z,5.50
2023-01-05T17:27:20.768Z,5.60
2023-01-05T17:32:24.919Z,5.53
2023-01-05T17:37:27.757Z,7.13
2023-01-05T17:42:47.798Z,5.37
2023-01-05T17:48:17.445Z,5.87
2023-01-05T17:53:20.275Z,4.90
2023-01-05T17:58:27.287Z,7.00
2023-01-05T18:03:31.702Z,7.13
2023-01-05T18:08:34.607Z,7.07
2023-01-05T18:13:37.503Z,7.03
2023-01-05T18:18:41.874Z,9.83
2023-01-05T18:23:44.707Z,10.00
2023-01-05T18:28:47.525Z,9.60
2023-01-05T18:33:51.731Z,8.17
2023-01-05T18:38:54.668Z,8.27
2023-01-05T18:43:57.609Z,8.97
2023-01-05T18:49:01.953Z,10.03
2023-01-05T18:54:05.547Z,8.00
2023-01-05T18:59:09.351Z,12.00
2023-01-05T19:04:15.734Z,10.47
2023-01-05T19:09:18.589Z,10.00
2023-01-05T19:14:21.412Z,12.87
2023-01-05T19:19:25.806Z,10.33
2023-01-05T19:24:28.670Z,10.17
2023-01-05T19:29:31.539Z,9.13
2023-01-05T19:34:39.735Z,8.10
2023-01-05T19:39:42.612Z,8.80
2023-01-05T19:44:46.702Z,8.73
2023-01-05T19:49:53.070Z,9.33
2023-01-05T19:54:56.076Z,6.97
2023-01-05T20:00:23.846Z,5.90
2023-01-05T20:05:28.117Z,4.60
2023-01-05T20:10:30.973Z,4.57
2023-01-05T20:15:37.267Z,6.23
2023-01-05T20:20:42.225Z,6.33
2023-01-05T20:25:47.904Z,6.03
2023-01-05T20:30:50.923Z,4.53
2023-01-05T20:35:55.892Z,6.10
2023-01-05T20:40:58.953Z,4.00
2023-01-05T20:46:01.850Z,3.93
2023-01-05T20:51:08.677Z,5.83
2023-01-05T20:56:13.637Z,4.87
2023-01-05T21:01:17.113Z,5.47
2023-01-05T21:06:21.912Z,5.23
2023-01-05T21:11:26.055Z,5.33
2023-01-05T21:16:38.650Z,5.80
2023-01-05T21:21:42.933Z,4.53
2023-01-05T21:26:45.979Z,4.27
2023-01-05T21:31:49.112Z,4.37
2023-01-05T21:36:53.715Z,5.30
2023-01-05T21:42:14.143Z,3.57
2023-01-05T21:47:17.034Z,4.43
2023-01-05T21:52:38.870Z,5.13
2023-01-05T21:57:41.999Z,3.50
2023-01-05T22:02:46.670Z,5.73
2023-01-05T22:07:50.964Z,3.90
2023-01-05T22:12:55.029Z,4.87
2023-01-05T22:17:58.724Z,5.67
2023-01-05T22:23:03.010Z,3.43
2023-01-05T22:28:08.731Z,3.50
2023-01-05T22:33:11.643Z,4.40
2023-01-05T22:38:15.880Z,3.33
2023-01-05T22:43:18.764Z,3.23
2023-01-05T22:48:21.621Z,4.13
2023-01-05T22:53:25.834Z,2.93
2023-01-05T22:58:29.241Z,2.97
2023-01-05T23:03:32.073Z,2.03
2023-01-05T23:08:36.766Z,3.57
2023-01-05T23:19:04.203Z,1.57
2023-01-05T23:24:09.456Z,2.27
2023-01-05T23:29:12.367Z,2.03
2023-01-05T23:34:15.239Z,2.90
2023-01-05T23:39:19.504Z,2.63
2023-01-05T23:44:22.332Z,3.23
2023-01-05T23:49:25.121Z,2.67
2023-01-05T23:54:29.399Z,2.60
2023-01-05T23:59:32.163Z,2.13
